Time;durP1;ratioP1;P1;durP2;ratioP2;P2;SDS_P1;SDS_P2;PMS_P1;PMS_P2;Temp;Humidity;BMP_temperature;BMP_pressure;BME280_temperature;BME280_humidity;BME280_pressure;Samples;Min_cycle;Max_cycle;Signal;HPM_P1;HPM_P2
2022/04/18 00:01:56;;;;;;;3.50;3.08;;;10.80;68.50;;;;;;5092958;28;20504;-57
2022/04/18 00:04:21;;;;;;;3.90;2.65;;;10.80;68.90;;;;;;5092308;28;20228;-57
2022/04/18 00:06:47;;;;;;;6.20;3.65;;;10.80;68.80;;;;;;5093108;28;20168;-57
2022/04/18 00:09:13;;;;;;;17.15;6.32;;;10.70;68.70;;;;;;5093099;28;20168;-58
2022/04/18 00:11:39;;;;;;;26.45;9.95;;;10.70;68.60;;;;;;5092909;28;20215;-58
2022/04/18 00:14:05;;;;;;;16.50;6.10;;;10.60;68.60;;;;;;5093228;28;20177;-58
2022/04/18 00:16:30;;;;;;;16.83;7.18;;;10.60;68.80;;;;;;5093222;28;20169;-58
2022/04/18 00:18:56;;;;;;;14.52;8.43;;;10.60;68.80;;;;;;5092760;28;20208;-58
2022/04/18 00:21:23;;;;;;;6.90;4.35;;;10.60;68.60;;;;;;5092854;28;20161;-58
2022/04/18 00:23:49;;;;;;;5.25;2.83;;;10.60;69.20;;;;;;5092974;28;20260;-58
2022/04/18 00:26:15;;;;;;;4.07;2.47;;;10.60;69.20;;;;;;5092756;28;20180;-58
2022/04/18 00:28:40;;;;;;;3.53;2.65;;;10.50;69.00;;;;;;5092483;28;20713;-57
2022/04/18 00:31:06;;;;;;;3.75;2.30;;;10.50;69.30;;;;;;5092972;28;20242;-58
2022/04/18 00:33:33;;;;;;;4.43;2.30;;;10.40;69.30;;;;;;5092650;28;20625;-58
2022/04/18 00:35:59;;;;;;;3.25;2.47;;;10.40;69.80;;;;;;5092598;28;20168;-58
2022/04/18 00:38:24;;;;;;;4.25;2.30;;;10.40;69.70;;;;;;5092361;28;20209;-58
2022/04/18 00:40:50;;;;;;;3.72;2.35;;;10.30;69.70;;;;;;5092355;28;20158;-58
2022/04/18 00:43:16;;;;;;;6.45;3.58;;;10.30;70.00;;;;;;5092633;28;20197;-58
2022/04/18 00:45:41;;;;;;;3.70;2.53;;;10.30;69.80;;;;;;5091971;28;20195;-58
2022/04/18 00:48:07;;;;;;;4.10;2.97;;;10.30;70.20;;;;;;5092661;28;20196;-58
2022/04/18 00:50:35;;;;;;;3.83;2.22;;;10.20;70.50;;;;;;5092319;28;20165;-58
2022/04/18 00:53:02;;;;;;;3.95;2.40;;;10.20;70.90;;;;;;5092369;28;20166;-58
2022/04/18 00:55:29;;;;;;;3.33;2.53;;;10.20;70.90;;;;;;5092277;28;20172;-58
2022/04/18 00:57:55;;;;;;;3.30;2.30;;;10.10;71.10;;;;;;5092119;28;20205;-58
2022/04/18 01:00:22;;;;;;;3.00;2.47;;;10.10;71.40;;;;;;5092201;28;20154;-58
2022/04/18 01:02:48;;;;;;;5.05;2.60;;;10.00;71.50;;;;;;5092080;28;20368;-58
2022/04/18 01:05:14;;;;;;;3.72;2.30;;;10.00;72.10;;;;;;5091613;28;20719;-58
2022/04/18 01:07:40;;;;;;;3.47;2.22;;;10.00;72.10;;;;;;5091825;28;20165;-58
2022/04/18 01:10:07;;;;;;;3.28;2.50;;;9.90;73.40;;;;;;5092275;28;20169;-58
2022/04/18 01:12:35;;;;;;;5.75;2.50;;;9.90;73.90;;;;;;5091236;28;20665;-58
2022/04/18 01:15:02;;;;;;;4.55;2.40;;;9.80;74.50;;;;;;5091933;28;20218;-58
2022/04/18 01:17:27;;;;;;;5.28;2.25;;;9.80;74.90;;;;;;5090535;28;20209;-58
2022/04/18 01:19:53;;;;;;;2.85;2.20;;;9.70;75.40;;;;;;5091701;28;20169;-58
2022/04/18 01:22:19;;;;;;;4.30;2.65;;;9.70;76.10;;;;;;5091822;28;20212;-58
2022/04/18 01:30:14;;;;;;;3.03;2.28;;;9.60;77.70;;;;;;5090861;28;20215;-58
2022/04/18 01:32:40;;;;;;;5.82;2.55;;;9.60;78.30;;;;;;5091834;28;20169;-58
2022/04/18 01:35:06;;;;;;;3.08;2.60;;;9.50;78.90;;;;;;5091975;28;20175;-57
2022/04/18 01:37:32;;;;;;;4.20;2.20;;;9.50;79.60;;;;;;5091564;28;20205;-57
2022/04/18 01:39:57;;;;;;;3.67;2.08;;;9.50;79.40;;;;;;5091999;28;20169;-58
2022/04/18 01:42:23;;;;;;;3.88;2.47;;;9.40;79.70;;;;;;5091418;28;20165;-58
2022/04/18 01:44:48;;;;;;;2.70;2.10;;;9.40;80.50;;;;;;5091666;28;20211;-58
2022/04/18 01:47:14;;;;;;;3.05;2.20;;;9.40;81.30;;;;;;5091632;28;20657;-57
2022/04/18 01:49:40;;;;;;;3.40;2.83;;;9.40;82.00;;;;;;5091855;28;20178;-57
2022/04/18 01:52:06;;;;;;;3.50;2.58;;;9.30;83.10;;;;;;5091902;28;20244;-59
2022/04/18 01:54:31;;;;;;;3.00;2.10;;;9.30;83.40;;;;;;5091484;28;20228;-58
2022/04/18 01:56:57;;;;;;;2.78;1.95;;;9.90;84.80;;;;;;5091368;28;20170;-58
2022/04/18 01:59:23;;;;;;;2.58;1.98;;;9.30;83.30;;;;;;5091763;28;20177;-58
2022/04/18 02:01:49;;;;;;;3.35;2.30;;;9.30;84.40;;;;;;5091235;28;20166;-58
2022/04/18 02:04:15;;;;;;;2.85;2.20;;;9.30;85.10;;;;;;5091404;28;20185;-58
2022/04/18 02:06:41;;;;;;;3.00;1.95;;;9.20;85.00;;;;;;5091363;28;20161;-57
2022/04/18 02:09:06;;;;;;;3.03;2.28;;;9.20;85.30;;;;;;5091768;28;20188;-58
2022/04/18 02:11:32;;;;;;;4.30;2.40;;;9.20;85.20;;;;;;5091052;28;20174;-58
2022/04/18 02:13:58;;;;;;;3.38;2.15;;;9.30;85.20;;;;;;5090988;28;20174;-58
2022/04/18 02:16:24;;;;;;;3.05;2.10;;;9.20;84.80;;;;;;5091070;28;20240;-58
2022/04/18 02:18:50;;;;;;;3.42;1.95;;;9.20;84.80;;;;;;5091215;28;20642;-58
2022/04/18 02:21:16;;;;;;;3.22;2.17;;;9.20;85.10;;;;;;5091361;28;20169;-58
2022/04/18 02:23:42;;;;;;;2.95;2.20;;;9.20;84.60;;;;;;5094013;28;20178;-58
2022/04/18 02:26:09;;;;;;;2.92;2.20;;;9.20;84.80;;;;;;5095625;28;20244;-58
2022/04/18 02:28:35;;;;;;;3.05;1.88;;;9.20;84.50;;;;;;5095247;28;20526;-58
2022/04/18 02:31:01;;;;;;;2.85;2.22;;;9.10;84.10;;;;;;5094894;28;20172;-58
2022/04/18 02:33:27;;;;;;;3.15;2.30;;;9.10;84.50;;;;;;5094918;28;20184;-58
2022/04/18 02:35:54;;;;;;;5.40;2.60;;;9.10;85.30;;;;;;5094866;28;20170;-58
2022/04/18 02:38:19;;;;;;;5.18;2.85;;;9.10;85.40;;;;;;5094562;28;20213;-58
2022/04/18 02:40:45;;;;;;;2.30;2.03;;;9.10;85.50;;;;;;5094816;28;20252;-58
2022/04/18 02:43:12;;;;;;;3.47;2.28;;;9.10;85.90;;;;;;5094738;28;20211;-58
2022/04/18 02:45:37;;;;;;;4.20;2.20;;;9.10;86.00;;;;;;5094960;28;20214;-58
2022/04/18 02:48:03;;;;;;;3.17;2.28;;;9.10;85.90;;;;;;5094534;28;20248;-58
2022/04/18 02:50:29;;;;;;;4.40;2.55;;;9.10;86.00;;;;;;5094723;28;20254;-58
2022/04/18 02:52:55;;;;;;;3.78;2.28;;;9.00;86.30;;;;;;5094669;28;20226;-58
2022/04/18 02:55:21;;;;;;;4.13;2.30;;;9.00;87.50;;;;;;5094769;28;20158;-58
2022/04/18 02:57:46;;;;;;;3.17;2.15;;;8.90;90.20;;;;;;5094622;28;20232;-58
2022/04/18 03:00:12;;;;;;;2.90;2.58;;;8.90;90.80;;;;;;5094404;28;20183;-58
2022/04/18 03:02:39;;;;;;;4.10;2.60;;;8.80;91.60;;;;;;5094661;28;20165;-59
2022/04/18 03:05:06;;;;;;;4.93;2.58;;;8.70;93.20;;;;;;5094190;28;20571;-58
2022/04/18 03:07:33;;;;;;;5.97;2.30;;;8.70;92.70;;;;;;5094507;28;20184;-57
2022/04/18 03:09:59;;;;;;;5.30;2.47;;;8.80;94.00;;;;;;5092934;28;20648;-57
2022/04/18 03:12:24;;;;;;;6.18;3.38;;;8.70;94.60;;;;;;5094235;28;20173;-57
2022/04/18 03:14:50;;;;;;;3.63;2.40;;;8.70;95.10;;;;;;5094199;28;20162;-58
2022/04/18 03:17:19;;;;;;;8.85;4.40;;;8.70;95.40;;;;;;5093582;28;20190;-57
2022/04/18 03:19:45;;;;;;;19.17;8.32;;;8.80;94.90;;;;;;5094012;28;20645;-58
2022/04/18 03:22:10;;;;;;;6.88;3.95;;;8.80;94.00;;;;;;5094271;28;20226;-57
2022/04/18 03:24:36;;;;;;;16.80;7.80;;;8.70;94.50;;;;;;5093736;28;20173;-57
2022/04/18 03:27:03;;;;;;;18.23;8.98;;;8.70;94.90;;;;;;5093897;28;20162;-57
2022/04/18 03:29:29;;;;;;;11.80;5.25;;;8.70;95.00;;;;;;5093868;28;20218;-57
2022/04/18 03:31:56;;;;;;;6.38;3.40;;;8.70;95.30;;;;;;5093916;28;20542;-56
2022/04/18 03:34:22;;;;;;;6.35;3.10;;;8.70;95.20;;;;;;5093190;28;20188;-57
2022/04/18 03:42:19;;;;;;;3.83;2.40;;;8.60;94.90;;;;;;5093905;28;20522;-57
2022/04/18 03:44:46;;;;;;;4.78;2.47;;;8.70;95.00;;;;;;5093587;28;20170;-57
2022/04/18 03:47:14;;;;;;;5.05;2.95;;;8.70;94.90;;;;;;5093494;28;20265;-57
2022/04/18 03:49:40;;;;;;;3.58;2.40;;;8.60;95.30;;;;;;5093881;28;20176;-58
2022/04/18 03:52:06;;;;;;;5.03;3.03;;;8.60;95.60;;;;;;5093787;28;20705;-58
2022/04/18 03:54:34;;;;;;;7.72;4.07;;;8.60;95.50;;;;;;5093424;28;20165;-58
2022/04/18 03:57:00;;;;;;;7.40;4.07;;;8.50;99.90;;;;;;5093135;28;20703;-59
2022/04/18 03:59:26;;;;;;;9.32;4.90;;;8.40;99.90;;;;;;5093182;28;20256;-58
2022/04/18 04:01:51;;;;;;;4.00;2.72;;;8.30;99.90;;;;;;5092030;28;20165;-58
2022/04/18 04:04:17;;;;;;;2.78;1.95;;;8.40;99.90;;;;;;5093144;28;20169;-58
2022/04/18 04:06:42;;;;;;;3.15;2.28;;;8.40;99.90;;;;;;5093203;28;20207;-57
2022/04/18 04:09:08;;;;;;;3.95;2.17;;;8.30;99.90;;;;;;5093420;28;20175;-58
2022/04/18 04:11:33;;;;;;;5.78;3.22;;;8.10;99.90;;;;;;5093041;28;20231;-57
2022/04/18 04:13:59;;;;;;;12.68;5.07;;;8.00;99.90;;;;;;5092992;28;20245;-58
2022/04/18 04:16:24;;;;;;;14.60;6.90;;;8.10;99.90;;;;;;5093092;28;20279;-57
2022/04/18 04:18:50;;;;;;;10.00;5.60;;;8.10;99.90;;;;;;5092870;28;20243;-58
2022/04/18 04:21:16;;;;;;;5.47;3.13;;;8.10;99.90;;;;;;5092915;28;20158;-58
2022/04/18 04:23:41;;;;;;;3.78;2.33;;;8.20;99.90;;;;;;5092789;28;20260;-57
2022/04/18 04:26:10;;;;;;;5.68;4.22;;;8.20;99.90;;;;;;5093077;28;20189;-57
2022/04/18 04:28:35;;;;;;;6.50;3.22;;;8.20;99.90;;;;;;5092769;28;20204;-58
2022/04/18 04:31:04;;;;;;;7.53;3.55;;;8.20;99.90;;;;;;5091425;28;20201;-57
2022/04/18 04:33:32;;;;;;;5.45;3.42;;;8.30;99.90;;;;;;5092702;28;20177;-58
2022/04/18 04:35:58;;;;;;;3.95;3.08;;;8.40;99.90;;;;;;5092643;28;20206;-58
2022/04/18 04:38:27;;;;;;;4.13;2.97;;;8.40;99.90;;;;;;5092463;28;20205;-57
2022/04/18 04:40:54;;;;;;;5.07;3.20;;;8.30;99.90;;;;;;5092501;28;20177;-57
2022/04/18 04:43:28;;;;;;;5.00;2.70;;;8.30;99.90;;;;;;5092070;28;20165;-57
2022/04/18 04:45:57;;;;;;;5.05;2.50;;;8.20;99.90;;;;;;5092529;28;20273;-58
2022/04/18 04:48:23;;;;;;;5.88;2.47;;;8.10;99.90;;;;;;5092731;28;20174;-57
2022/04/18 04:50:49;;;;;;;3.35;2.38;;;8.00;99.90;;;;;;5092525;28;20551;-58
2022/04/18 04:53:15;;;;;;;4.63;2.60;;;8.00;99.90;;;;;;5092429;28;20161;-57
2022/04/18 04:55:41;;;;;;;3.38;2.90;;;8.00;99.90;;;;;;5090946;28;20170;-57
2022/04/18 04:58:09;;;;;;;3.42;2.55;;;8.00;99.90;;;;;;5092671;28;20215;-58
2022/04/18 05:00:35;;;;;;;115.10;30.90;;;8.00;99.90;;;;;;5092191;28;20161;-58
2022/04/18 05:03:00;;;;;;;48.58;15.35;;;8.00;99.90;;;;;;5092141;28;20234;-58
2022/04/18 05:05:26;;;;;;;48.65;15.05;;;8.00;99.90;;;;;;5091984;28;20209;-58
2022/04/18 05:07:51;;;;;;;33.88;11.55;;;8.20;99.90;;;;;;5091856;28;20169;-58
2022/04/18 05:10:17;;;;;;;16.15;6.50;;;8.20;99.90;;;;;;5092040;28;20157;-57
2022/04/18 05:12:43;;;;;;;24.58;10.98;;;8.30;99.90;;;;;;5092306;28;20165;-57
2022/04/18 05:15:09;;;;;;;15.35;8.75;;;8.30;99.90;;;;;;5092266;28;20170;-57
2022/04/18 05:17:35;;;;;;;8.65;5.80;;;8.40;99.90;;;;;;5091896;28;20236;-57
2022/04/18 05:20:03;;;;;;;4.38;2.85;;;8.40;99.90;;;;;;5091977;28;20173;-58
2022/04/18 05:22:28;;;;;;;5.35;2.30;;;8.40;99.90;;;;;;5092127;28;20283;-58
2022/04/18 05:24:55;;;;;;;3.95;2.88;;;8.40;99.90;;;;;;5091905;28;20217;-58
2022/04/18 05:27:22;;;;;;;3.33;2.55;;;8.50;99.90;;;;;;5091848;28;20206;-58
2022/04/18 05:29:47;;;;;;;4.38;2.50;;;8.60;99.90;;;;;;5091741;28;20165;-58
2022/04/18 05:32:13;;;;;;;4.47;2.50;;;8.50;99.90;;;;;;5091760;28;20169;-58
2022/04/18 05:34:38;;;;;;;5.97;2.42;;;8.60;99.90;;;;;;5092029;28;20689;-58
2022/04/18 05:37:04;;;;;;;3.92;2.38;;;8.60;99.90;;;;;;5091623;28;20506;-58
2022/04/18 05:39:30;;;;;;;3.28;2.63;;;8.60;99.90;;;;;;5090409;28;20173;-58
2022/04/18 05:41:56;;;;;;;3.53;2.33;;;8.60;99.90;;;;;;5091653;28;20622;-58
2022/04/18 05:44:22;;;;;;;2.60;2.22;;;8.60;99.90;;;;;;5091714;28;20168;-58
2022/04/18 05:46:48;;;;;;;3.00;2.42;;;8.70;99.90;;;;;;5092058;28;20218;-58
2022/04/18 05:49:14;;;;;;;4.50;2.30;;;8.70;99.90;;;;;;5091614;28;20246;-58
2022/04/18 05:51:40;;;;;;;3.25;2.40;;;8.80;99.90;;;;;;5092029;28;20650;-58
2022/04/18 05:54:05;;;;;;;4.68;2.70;;;8.90;99.90;;;;;;5091600;28;20161;-58
2022/04/18 05:56:31;;;;;;;2.60;2.30;;;8.90;99.90;;;;;;5091529;28;20169;-58
2022/04/18 05:58:57;;;;;;;4.88;2.15;;;9.00;99.90;;;;;;5094579;28;20571;-58
2022/04/18 06:01:23;;;;;;;2.63;2.10;;;9.00;99.90;;;;;;5095663;28;20171;-58
2022/04/18 06:03:48;;;;;;;3.03;2.28;;;9.10;99.90;;;;;;5095495;28;20169;-57
2022/04/18 06:06:14;;;;;;;2.35;2.15;;;9.20;99.90;;;;;;5095406;28;20239;-57
2022/04/18 06:08:41;;;;;;;2.20;2.00;;;9.30;99.90;;;;;;5095810;28;20209;-57
2022/04/18 06:11:06;;;;;;;3.90;2.10;;;9.30;99.90;;;;;;5094473;28;20634;-58
2022/04/18 06:13:32;;;;;;;4.82;2.35;;;9.40;99.90;;;;;;5095402;28;20181;-57
2022/04/18 06:15:58;;;;;;;3.30;2.33;;;9.50;99.90;;;;;;5095240;28;20168;-57
2022/04/18 06:18:24;;;;;;;3.10;2.45;;;9.60;99.90;;;;;;5095552;28;20288;-58
2022/04/18 06:20:49;;;;;;;2.95;2.13;;;9.60;99.90;;;;;;5095236;28;20560;-58
2022/04/18 06:23:19;;;;;;;3.63;2.60;;;9.70;99.90;;;;;;5093616;28;20540;-58
2022/04/18 06:25:45;;;;;;;2.97;2.33;;;9.80;99.90;;;;;;5095084;28;20222;-57
2022/04/18 06:28:12;;;;;;;4.97;2.58;;;9.80;99.90;;;;;;5095144;28;20176;-57
2022/04/18 06:30:38;;;;;;;2.60;2.00;;;9.90;99.90;;;;;;5093889;28;20177;-57
2022/04/18 06:33:04;;;;;;;3.13;2.30;;;10.00;99.90;;;;;;5094989;28;20252;-58
2022/04/18 06:35:29;;;;;;;3.00;2.25;;;10.10;99.90;;;;;;5094510;28;20161;-58
2022/04/18 06:37:55;;;;;;;3.03;2.10;;;10.10;99.90;;;;;;5094943;28;20551;-58
2022/04/18 06:40:20;;;;;;;2.75;2.15;;;10.20;99.90;;;;;;5094797;28;20173;-57
2022/04/18 06:42:46;;;;;;;2.60;1.92;;;10.30;99.90;;;;;;5094862;28;20173;-57
2022/04/18 06:45:12;;;;;;;4.10;2.58;;;10.40;99.90;;;;;;5093450;28;20176;-57
2022/04/18 06:47:37;;;;;;;2.70;2.45;;;10.60;99.90;;;;;;5095186;28;20170;-57
2022/04/18 06:50:08;;;;;;;3.22;2.05;;;10.50;99.90;;;;;;5094711;28;20169;-57
2022/04/18 06:52:38;;;;;;;4.30;2.25;;;10.60;99.90;;;;;;5094855;28;20265;-57
2022/04/18 06:55:04;;;;;;;2.33;2.13;;;10.70;99.90;;;;;;5094851;28;20176;-57
2022/04/18 06:57:30;;;;;;;2.58;2.10;;;10.80;99.90;;;;;;5094465;28;20675;-57
2022/04/18 06:59:55;;;;;;;4.60;2.20;;;10.80;99.90;;;;;;5094536;28;20263;-58
2022/04/18 07:02:21;;;;;;;2.30;2.10;;;10.90;99.90;;;;;;5094253;28;20173;-58
2022/04/18 07:04:46;;;;;;;2.75;2.28;;;11.10;99.90;;;;;;5094197;28;20292;-58
2022/04/18 07:07:12;;;;;;;3.80;2.47;;;11.10;99.90;;;;;;5094342;28;20248;-57
2022/04/18 07:09:37;;;;;;;4.20;2.13;;;11.20;99.90;;;;;;5091764;28;20741;-58
2022/04/18 07:12:03;;;;;;;2.70;2.15;;;11.30;99.90;;;;;;5094409;28;20169;-58
2022/04/18 07:14:30;;;;;;;3.60;2.28;;;11.40;99.90;;;;;;5094149;28;20227;-58
2022/04/18 07:16:55;;;;;;;4.35;2.35;;;11.50;99.90;;;;;;5094408;28;20201;-58
2022/04/18 07:19:21;;;;;;;2.97;2.25;;;11.60;99.00;;;;;;5094156;28;20205;-58
2022/04/18 07:21:46;;;;;;;3.97;2.47;;;11.70;99.90;;;;;;5094086;28;20157;-58
2022/04/18 07:24:12;;;;;;;5.63;2.78;;;11.80;98.50;;;;;;5093998;28;20165;-58
2022/04/18 07:26:37;;;;;;;3.05;2.08;;;11.80;98.20;;;;;;5094263;28;20611;-58
2022/04/18 07:29:03;;;;;;;2.53;2.25;;;11.90;97.80;;;;;;5092650;28;20200;-58
2022/04/18 07:31:28;;;;;;;2.60;2.40;;;12.10;97.70;;;;;;5092896;28;20173;-58
2022/04/18 07:33:54;;;;;;;3.33;2.28;;;12.10;97.50;;;;;;5094056;28;20196;-58
2022/04/18 07:36:20;;;;;;;5.22;2.88;;;12.20;97.80;;;;;;5094004;28;20585;-58
2022/04/18 07:38:51;;;;;;;3.75;2.25;;;12.40;97.60;;;;;;5093697;28;20666;-58
2022/04/18 07:41:22;;;;;;;4.43;2.58;;;12.40;96.60;;;;;;5092420;28;20162;-58
2022/04/18 07:43:49;;;;;;;3.00;2.47;;;12.40;95.20;;;;;;5093569;28;20169;-58
2022/04/18 07:46:15;;;;;;;5.97;2.40;;;12.60;95.70;;;;;;5093247;28;20572;-58
2022/04/18 07:48:41;;;;;;;3.80;2.33;;;12.80;95.10;;;;;;5093241;28;20193;-58
2022/04/18 07:53:51;;;;;;;4.32;2.55;;;12.80;94.40;;;;;;5093564;28;20191;-58
2022/04/18 07:56:17;;;;;;;4.20;2.50;;;12.70;94.20;;;;;;5093668;28;20174;-57
2022/04/18 07:58:43;;;;;;;3.30;2.65;;;12.80;93.50;;;;;;5092228;28;20216;-55
2022/04/18 08:01:08;;;;;;;5.95;2.95;;;13.10;93.30;;;;;;5092918;28;20153;-55
2022/04/18 08:03:35;;;;;;;2.65;2.35;;;13.20;92.70;;;;;;5093160;28;20184;-55
2022/04/18 08:06:01;;;;;;;6.93;2.88;;;13.30;92.40;;;;;;5093034;28;20209;-54
2022/04/18 08:08:27;;;;;;;3.20;2.20;;;13.30;91.30;;;;;;5091201;28;20176;-54
2022/04/18 08:10:52;;;;;;;3.00;2.50;;;13.40;91.90;;;;;;5091095;28;20248;-55
2022/04/18 08:13:18;;;;;;;2.70;2.45;;;13.50;91.80;;;;;;5091368;28;20194;-55
2022/04/18 08:15:43;;;;;;;3.00;2.70;;;13.40;92.40;;;;;;5091335;28;20184;-55
2022/04/18 08:18:09;;;;;;;4.03;2.50;;;13.60;91.40;;;;;;5092507;28;20201;-56
2022/04/18 08:20:35;;;;;;;5.18;2.97;;;13.90;92.00;;;;;;5092858;28;20169;-55
2022/04/18 08:23:00;;;;;;;5.70;2.95;;;13.90;90.50;;;;;;5092918;28;20634;-54
2022/04/18 08:25:26;;;;;;;3.95;2.47;;;13.70;90.10;;;;;;5092755;28;20184;-56
2022/04/18 08:27:51;;;;;;;3.60;2.75;;;13.90;90.30;;;;;;5092778;28;20165;-55
2022/04/18 08:30:17;;;;;;;3.58;2.38;;;14.10;90.20;;;;;;5092337;28;20206;-57
2022/04/18 08:32:43;;;;;;;4.57;3.10;;;14.40;90.60;;;;;;5092518;28;20176;-57
2022/04/18 08:35:09;;;;;;;3.80;2.88;;;14.40;90.50;;;;;;5092675;28;20648;-54
2022/04/18 08:37:36;;;;;;;3.63;2.72;;;14.40;87.00;;;;;;5092383;28;20189;-55
2022/04/18 08:40:04;;;;;;;2.60;2.40;;;14.40;88.40;;;;;;5092570;28;20190;-54
2022/04/18 08:42:34;;;;;;;3.63;2.58;;;14.50;87.90;;;;;;5091038;28;20173;-55
2022/04/18 08:45:03;;;;;;;2.97;2.50;;;14.60;90.40;;;;;;5091946;28;20165;-55
2022/04/18 08:52:58;;;;;;;3.30;2.63;;;15.00;85.70;;;;;;5092248;28;20697;-55
2022/04/18 08:55:23;;;;;;;4.55;2.58;;;15.00;87.60;;;;;;5092029;28;20274;-54
2022/04/18 08:57:49;;;;;;;5.65;2.47;;;15.10;85.30;;;;;;5092045;28;20300;-55
2022/04/18 09:00:15;;;;;;;3.25;2.60;;;15.10;83.80;;;;;;5092178;28;20172;-55
2022/04/18 09:02:40;;;;;;;4.55;2.88;;;15.30;84.50;;;;;;5091914;28;20173;-55
2022/04/18 09:05:11;;;;;;;6.80;2.72;;;15.30;86.60;;;;;;5092074;28;20217;-56
2022/04/18 09:07:36;;;;;;;4.13;2.60;;;15.50;84.00;;;;;;5092471;28;20157;-55
2022/04/18 09:10:03;;;;;;;4.35;3.08;;;15.40;84.80;;;;;;5092360;28;20170;-55
2022/04/18 09:12:29;;;;;;;7.18;2.58;;;15.60;86.00;;;;;;5090681;28;20585;-54
2022/04/18 09:14:55;;;;;;;4.05;3.20;;;15.70;84.10;;;;;;5092246;28;20567;-54
2022/04/18 09:17:34;;;;;;;3.20;2.90;;;15.60;83.20;;;;;;5091739;28;20189;-54
2022/04/18 09:20:08;;;;;;;4.10;2.88;;;15.80;84.30;;;;;;5092170;28;20177;-54
2022/04/18 09:22:43;;;;;;;4.60;2.95;;;15.90;83.90;;;;;;5092021;28;20169;-55
2022/04/18 09:25:16;;;;;;;3.50;3.03;;;16.00;85.80;;;;;;5092117;28;20548;-55
2022/04/18 09:27:52;;;;;;;4.05;2.90;;;16.90;83.50;;;;;;5091763;28;20173;-54
2022/04/18 09:30:17;;;;;;;4.40;2.92;;;16.00;81.30;;;;;;5091484;28;20157;-54
2022/04/18 09:33:05;;;;;;;5.30;2.60;;;16.00;81.90;;;;;;5091024;28;20287;-54
2022/04/18 09:35:32;;;;;;;7.97;2.80;;;16.10;82.70;;;;;;5092043;28;20210;-54
2022/04/18 09:38:03;;;;;;;4.63;2.45;;;16.10;83.00;;;;;;5091540;28;20200;-54
2022/04/18 09:40:31;;;;;;;4.05;2.85;;;16.40;82.30;;;;;;5091789;28;20319;-54
2022/04/18 09:42:57;;;;;;;3.90;2.97;;;16.60;81.90;;;;;;5091774;28;20154;-54
2022/04/18 09:45:23;;;;;;;7.25;3.50;;;16.60;80.50;;;;;;5091691;28;20192;-54
2022/04/18 09:48:02;;;;;;;3.30;2.80;;;16.60;80.10;;;;;;5091973;28;20175;-55
2022/04/18 09:53:19;;;;;;;5.53;2.92;;;16.90;78.70;;;;;;5091894;28;20172;-55
2022/04/18 09:55:51;;;;;;;5.30;2.90;;;16.90;78.90;;;;;;5090131;28;20582;-53
2022/04/18 09:58:16;;;;;;;4.20;3.40;;;17.10;79.20;;;;;;5091146;28;20220;-54
2022/04/18 10:00:42;;;;;;;6.45;2.67;;;17.10;79.90;;;;;;5091083;28;20161;-54
2022/04/18 10:03:12;;;;;;;4.68;3.08;;;17.20;78.70;;;;;;5091740;28;20168;-54
2022/04/18 10:05:39;;;;;;;3.33;2.75;;;16.90;78.00;;;;;;5091631;28;20216;-56
2022/04/18 10:08:05;;;;;;;3.72;3.08;;;17.10;79.60;;;;;;5091421;28;20173;-55
2022/04/18 10:10:34;;;;;;;7.13;3.25;;;17.20;77.70;;;;;;5091433;28;20184;-55
2022/04/18 10:13:02;;;;;;;7.97;4.43;;;17.20;75.70;;;;;;5089699;28;20219;-54
2022/04/18 10:15:27;;;;;;;3.28;2.90;;;17.30;78.20;;;;;;5091499;28;20162;-54
2022/04/18 10:17:55;;;;;;;7.28;4.68;;;17.50;76.70;;;;;;5090032;28;20200;-54
2022/04/18 10:20:51;;;;;;;5.68;3.90;;;17.50;73.10;;;;;;5091459;28;20227;-53
2022/04/18 10:23:32;;;;;;;13.98;7.85;;;17.50;72.50;;;;;;5091572;28;20240;-55
2022/04/18 10:26:35;;;;;;;32.63;20.42;;;17.70;74.10;;;;;;5091193;28;20166;-55
2022/04/18 10:29:09;;;;;;;11.90;9.30;;;17.90;72.20;;;;;;5091654;28;21255;-54
2022/04/18 10:31:39;;;;;;;9.68;7.00;;;17.90;70.80;;;;;;5090899;28;20166;-53
2022/04/18 10:34:05;;;;;;;5.70;4.68;;;18.30;72.00;;;;;;5091443;28;20170;-55
2022/04/18 10:36:33;;;;;;;11.18;6.03;;;18.30;69.80;;;;;;5091138;28;20246;-54
2022/04/18 10:39:06;;;;;;;9.07;4.55;;;18.10;68.10;;;;;;5091064;28;20200;-55
2022/04/18 10:41:40;;;;;;;5.70;4.88;;;18.00;68.50;;;;;;5091135;28;20162;-55
2022/04/18 10:44:10;;;;;;;8.30;6.22;;;18.00;69.30;;;;;;5092506;28;20168;-54
2022/04/18 10:46:36;;;;;;;4.97;3.53;;;18.30;69.00;;;;;;5094768;28;20178;-55
2022/04/18 10:49:04;;;;;;;15.88;12.18;;;18.60;66.70;;;;;;5094121;28;20200;-54
2022/04/18 10:51:39;;;;;;;6.68;3.63;;;18.50;66.00;;;;;;5094228;28;20630;-55
2022/04/18 10:54:17;;;;;;;8.68;6.65;;;18.20;63.10;;;;;;5094668;28;20630;-55
2022/04/18 10:56:48;;;;;;;4.82;3.15;;;18.50;64.70;;;;;;5094564;28;20172;-55
2022/04/18 10:59:15;;;;;;;6.07;3.92;;;18.30;61.90;;;;;;5094751;28;20277;-55
2022/04/18 11:01:42;;;;;;;4.65;3.78;;;18.60;63.80;;;;;;5094399;28;20162;-55
2022/04/18 11:04:09;;;;;;;10.13;9.05;;;18.60;64.90;;;;;;5094809;28;20181;-55
2022/04/18 11:06:38;;;;;;;3.90;2.85;;;18.70;63.10;;;;;;5094353;28;20181;-55
2022/04/18 11:09:19;;;;;;;2.92;2.65;;;18.90;63.50;;;;;;5094382;28;20527;-55
2022/04/18 11:11:54;;;;;;;3.65;2.83;;;18.60;60.60;;;;;;5094541;28;20263;-55
2022/04/18 11:14:21;;;;;;;6.47;5.03;;;18.50;63.30;;;;;;5094515;28;20198;-55
2022/04/18 11:16:49;;;;;;;8.77;7.15;;;19.00;62.90;;;;;;5092878;28;20173;-55
2022/04/18 11:19:15;;;;;;;9.52;6.72;;;19.00;61.30;;;;;;5093724;28;20284;-55
2022/04/18 11:21:56;;;;;;;4.15;2.95;;;18.90;63.00;;;;;;5094151;28;20690;-55
2022/04/18 11:24:52;;;;;;;3.75;2.65;;;19.00;60.30;;;;;;5094276;28;20169;-55
2022/04/18 11:27:20;;;;;;;4.95;2.85;;;19.10;62.10;;;;;;5094015;28;20219;-55
2022/04/18 11:29:51;;;;;;;7.13;5.18;;;19.10;60.80;;;;;;5094083;28;20191;-55
2022/04/18 11:32:20;;;;;;;10.57;6.53;;;19.10;61.60;;;;;;5093958;28;20180;-55
2022/04/18 11:34:48;;;;;;;23.17;13.23;;;19.30;62.60;;;;;;5093821;28;20161;-55
2022/04/18 11:37:22;;;;;;;4.10;2.97;;;19.40;61.90;;;;;;5093735;28;20172;-55
2022/04/18 11:39:52;;;;;;;3.65;3.33;;;19.50;62.60;;;;;;5093733;28;20161;-55
2022/04/18 11:42:21;;;;;;;3.40;2.90;;;19.60;61.40;;;;;;5093771;28;20154;-55
2022/04/18 11:44:49;;;;;;;6.68;4.57;;;19.40;60.70;;;;;;5093878;28;20161;-55
2022/04/18 11:47:23;;;;;;;6.40;5.53;;;19.40;59.60;;;;;;5092978;28;20174;-55
2022/04/18 11:49:58;;;;;;;4.68;3.13;;;19.40;60.10;;;;;;5093541;28;20416;-55
2022/04/18 11:52:26;;;;;;;5.13;4.07;;;19.50;60.50;;;;;;5093493;28;20165;-56
2022/04/18 11:54:55;;;;;;;6.00;4.60;;;19.40;59.50;;;;;;5092933;28;20157;-55
2022/04/18 11:57:21;;;;;;;4.10;3.28;;;19.30;59.50;;;;;;5092859;28;20173;-55
2022/04/18 11:59:47;;;;;;;5.07;3.75;;;19.50;59.60;;;;;;5093337;28;20173;-55
2022/04/18 12:07:48;;;;;;;6.68;4.97;;;19.50;58.10;;;;;;5093102;28;20176;-55
2022/04/18 12:10:25;;;;;;;6.15;3.58;;;19.60;56.70;;;;;;5092637;28;20702;-55
2022/04/18 12:12:52;;;;;;;4.22;3.15;;;19.70;57.50;;;;;;5092840;28;20172;-55
2022/04/18 12:15:22;;;;;;;6.55;5.78;;;19.90;57.00;;;;;;5093333;28;20172;-55
2022/04/18 12:17:48;;;;;;;5.32;4.82;;;19.90;57.70;;;;;;5093108;28;20204;-55
2022/04/18 12:20:27;;;;;;;4.63;3.97;;;19.50;55.10;;;;;;5092920;28;20169;-55
2022/04/18 12:22:58;;;;;;;3.95;2.90;;;19.70;55.70;;;;;;5093147;28;20176;-55
2022/04/18 12:25:26;;;;;;;2.88;2.60;;;19.40;55.60;;;;;;5093054;28;20176;-55
2022/04/18 12:27:52;;;;;;;3.05;2.63;;;19.50;55.50;;;;;;5091747;28;20193;-55
2022/04/18 12:30:18;;;;;;;3.55;2.25;;;19.50;56.70;;;;;;5092689;28;20161;-56
2022/04/18 12:32:47;;;;;;;4.85;2.65;;;19.60;55.80;;;;;;5092606;28;20272;-55
2022/04/18 12:35:37;;;;;;;3.17;2.30;;;19.80;56.60;;;;;;5092829;28;20183;-55
2022/04/18 12:38:04;;;;;;;4.13;2.45;;;20.10;56.10;;;;;;5092529;28;20295;-55
2022/04/18 12:40:38;;;;;;;2.53;2.25;;;20.00;56.40;;;;;;5092745;28;20169;-56
2022/04/18 12:43:08;;;;;;;2.35;2.13;;;20.20;58.00;;;;;;5092738;28;20173;-56
2022/04/18 12:45:56;;;;;;;3.47;2.28;;;20.40;57.10;;;;;;5092623;28;20189;-54
2022/04/18 12:48:26;;;;;;;2.70;2.50;;;20.10;55.10;;;;;;5092428;28;20165;-54
2022/04/18 12:50:54;;;;;;;2.60;2.10;;;19.80;54.70;;;;;;5092589;28;20219;-54
2022/04/18 12:53:21;;;;;;;2.95;2.58;;;19.80;54.80;;;;;;5092527;28;20690;-56
2022/04/18 12:56:02;;;;;;;2.88;2.40;;;20.20;56.70;;;;;;5092641;28;20184;-54
2022/04/18 12:58:35;;;;;;;3.13;2.17;;;20.50;56.20;;;;;;5092191;28;20208;-55
2022/04/18 13:01:01;;;;;;;3.65;2.22;;;20.70;57.20;;;;;;5092022;28;20161;-55
2022/04/18 13:03:27;;;;;;;4.55;2.50;;;20.80;56.70;;;;;;5091716;28;20524;-54
2022/04/18 13:05:53;;;;;;;4.68;2.25;;;20.80;55.70;;;;;;5091789;28;20571;-54
2022/04/18 13:08:19;;;;;;;4.22;2.42;;;20.60;55.10;;;;;;5092006;28;20252;-54
2022/04/18 13:10:45;;;;;;;4.03;2.60;;;20.50;55.10;;;;;;5092082;28;20168;-54
2022/04/18 13:13:12;;;;;;;2.28;2.08;;;20.40;53.80;;;;;;5092611;28;20200;-54
2022/04/18 13:15:41;;;;;;;4.13;2.70;;;20.60;56.10;;;;;;5092372;28;20529;-54
2022/04/18 13:18:12;;;;;;;4.25;2.58;;;20.60;55.50;;;;;;5092487;28;20208;-54
2022/04/18 13:20:40;;;;;;;5.07;2.70;;;20.90;55.90;;;;;;5092256;28;20165;-54